Time;durP1;ratioP1;P1;durP2;ratioP2;P2;SDS_P1;SDS_P2;PMS_P1;PMS_P2;Temp;Humidity;BMP_temperature;BMP_pressure;BME280_temperature;BME280_humidity;BME280_pressure;Samples;Min_cycle;Max_cycle;Signal;HPM_P1;HPM_P2
2022/08/25 00:01:30;;;;;;;4.50;3.35;;;16.20;99.90;;;;;;5093424;28;20031;-72
2022/08/25 00:03:56;;;;;;;6.07;3.42;;;16.20;99.90;;;;;;5093495;28;20024;-72
2022/08/25 00:06:22;;;;;;;4.20;3.22;;;16.10;99.90;;;;;;5093144;28;20085;-72
2022/08/25 00:08:48;;;;;;;4.28;3.10;;;16.00;99.90;;;;;;5092765;28;20487;-72
2022/08/25 00:11:21;;;;;;;4.63;3.05;;;16.00;99.90;;;;;;5095545;28;20457;-72
2022/08/25 00:13:59;;;;;;;3.78;3.08;;;15.90;99.90;;;;;;5096980;28;20066;-72
2022/08/25 00:16:26;;;;;;;4.30;3.10;;;15.90;99.90;;;;;;5096767;28;20414;-72
2022/08/25 00:18:58;;;;;;;4.45;2.85;;;15.90;99.90;;;;;;5096392;28;20072;-72
2022/08/25 00:21:24;;;;;;;4.15;3.20;;;15.90;99.90;;;;;;5096555;28;20016;-72
2022/08/25 00:23:51;;;;;;;6.20;3.15;;;15.80;99.90;;;;;;5096556;28;20043;-72
2022/08/25 00:26:17;;;;;;;3.95;3.22;;;15.70;99.90;;;;;;5096283;28;20111;-72
2022/08/25 00:28:44;;;;;;;4.43;3.50;;;15.50;99.90;;;;;;5096526;28;20031;-72
2022/08/25 00:31:15;;;;;;;6.40;3.70;;;15.40;99.90;;;;;;5096094;28;20046;-72
2022/08/25 00:33:43;;;;;;;4.63;3.35;;;15.30;99.90;;;;;;5096652;28;20104;-72
2022/08/25 00:36:11;;;;;;;4.88;3.40;;;15.30;99.90;;;;;;5094856;28;20024;-72
2022/08/25 00:38:38;;;;;;;4.35;3.28;;;15.20;99.90;;;;;;5096029;28;20051;-72
2022/08/25 00:41:06;;;;;;;3.80;3.08;;;15.20;99.90;;;;;;5095920;28;20017;-71
2022/08/25 00:43:46;;;;;;;3.58;2.83;;;15.30;99.90;;;;;;5094670;28;20029;-72
2022/08/25 00:46:19;;;;;;;4.07;3.08;;;15.30;99.90;;;;;;5096491;28;20472;-72
2022/08/25 00:48:49;;;;;;;3.42;2.88;;;15.30;99.90;;;;;;5094598;28;20039;-72
2022/08/25 00:51:22;;;;;;;3.93;3.10;;;15.30;99.90;;;;;;5096076;28;20024;-72
2022/08/25 00:53:49;;;;;;;4.60;3.17;;;15.30;99.90;;;;;;5095696;28;20030;-72
2022/08/25 00:56:14;;;;;;;3.60;3.10;;;15.30;99.90;;;;;;5096243;28;20031;-72
2022/08/25 00:58:41;;;;;;;4.88;3.03;;;15.20;99.90;;;;;;5095627;28;20017;-73
2022/08/25 01:01:07;;;;;;;4.85;3.45;;;15.30;99.90;;;;;;5095794;28;20029;-73
2022/08/25 01:03:34;;;;;;;5.57;3.30;;;15.30;99.90;;;;;;5094922;28;20434;-73
2022/08/25 01:06:01;;;;;;;6.07;3.72;;;15.30;99.90;;;;;;5095811;28;20039;-73
2022/08/25 01:08:28;;;;;;;4.00;3.17;;;15.30;99.90;;;;;;5095402;28;20036;-73
2022/08/25 01:10:56;;;;;;;4.10;3.30;;;15.30;99.90;;;;;;5094172;28;20073;-73
2022/08/25 01:13:30;;;;;;;3.80;3.40;;;15.20;99.90;;;;;;5095546;28;20028;-73
2022/08/25 01:15:57;;;;;;;4.00;3.35;;;15.20;99.90;;;;;;5094077;28;20174;-73
2022/08/25 01:18:24;;;;;;;4.85;3.40;;;15.20;99.90;;;;;;5094300;28;20047;-73
2022/08/25 01:20:59;;;;;;;5.05;3.25;;;15.20;99.90;;;;;;5093815;28;20471;-73
2022/08/25 01:23:25;;;;;;;3.97;3.28;;;15.20;99.90;;;;;;5095002;28;20107;-73
2022/08/25 01:26:06;;;;;;;5.00;3.25;;;15.20;99.90;;;;;;5095408;28;20365;-73
2022/08/25 01:28:33;;;;;;;5.40;3.67;;;15.20;99.90;;;;;;5095441;28;20379;-72
2022/08/25 01:30:58;;;;;;;3.58;3.00;;;15.20;99.90;;;;;;5093978;28;20028;-72
2022/08/25 01:33:24;;;;;;;4.22;3.35;;;15.10;99.90;;;;;;5095174;28;20036;-73
2022/08/25 01:35:50;;;;;;;4.63;3.65;;;15.00;99.90;;;;;;5095196;28;20020;-73
2022/08/25 01:38:16;;;;;;;4.25;3.10;;;15.00;99.90;;;;;;5094897;28;20515;-73
2022/08/25 01:40:42;;;;;;;5.20;3.00;;;15.00;99.90;;;;;;5093559;28;20028;-73
2022/08/25 01:43:14;;;;;;;5.43;3.28;;;15.00;99.90;;;;;;5094987;28;20020;-72
2022/08/25 01:45:42;;;;;;;5.35;2.90;;;14.90;99.90;;;;;;5094716;28;20035;-73
2022/08/25 01:48:09;;;;;;;4.50;3.75;;;14.80;99.90;;;;;;5094967;28;20016;-73
2022/08/25 01:50:35;;;;;;;4.30;3.30;;;14.80;99.90;;;;;;5094670;28;20035;-73
2022/08/25 01:53:11;;;;;;;4.07;3.33;;;14.80;99.90;;;;;;5094486;28;20040;-72
2022/08/25 01:56:00;;;;;;;4.63;3.40;;;14.80;99.90;;;;;;5094911;28;20039;-73
2022/08/25 01:58:29;;;;;;;5.97;4.22;;;14.80;99.90;;;;;;5095116;28;20536;-73
2022/08/25 02:00:58;;;;;;;4.38;3.55;;;14.80;99.90;;;;;;5093145;28;20035;-72
2022/08/25 02:03:24;;;;;;;5.10;3.30;;;14.80;99.90;;;;;;5094437;28;20535;-73
2022/08/25 02:05:52;;;;;;;5.22;3.38;;;14.70;99.90;;;;;;5094410;28;20431;-73
2022/08/25 02:08:18;;;;;;;4.18;3.17;;;14.70;99.90;;;;;;5094177;28;20032;-73
2022/08/25 02:10:45;;;;;;;3.65;3.10;;;14.60;99.90;;;;;;5094317;28;20392;-73
2022/08/25 02:13:11;;;;;;;4.75;3.10;;;14.50;99.90;;;;;;5094146;28;20027;-73
2022/08/25 02:15:43;;;;;;;4.90;4.00;;;14.50;99.90;;;;;;5094204;28;20118;-73
2022/08/25 02:18:09;;;;;;;4.28;3.08;;;14.50;99.90;;;;;;5094433;28;20095;-73
2022/08/25 02:20:35;;;;;;;4.13;3.25;;;14.40;99.90;;;;;;5094394;28;20024;-73
2022/08/25 02:23:01;;;;;;;5.88;3.60;;;14.30;99.90;;;;;;5093990;28;20047;-72
2022/08/25 02:25:27;;;;;;;7.18;3.47;;;14.30;99.90;;;;;;5094088;28;20387;-73
2022/08/25 02:27:53;;;;;;;4.38;3.28;;;14.20;99.90;;;;;;5094028;28;20035;-73
2022/08/25 02:30:19;;;;;;;5.07;3.42;;;14.20;99.90;;;;;;5092715;28;20024;-73
2022/08/25 02:32:44;;;;;;;5.95;3.63;;;14.10;99.90;;;;;;5092228;28;20028;-72
2022/08/25 02:35:11;;;;;;;4.47;3.90;;;14.00;99.90;;;;;;5094089;28;20029;-73
2022/08/25 02:37:37;;;;;;;5.20;4.00;;;13.90;99.90;;;;;;5092586;28;20039;-73
2022/08/25 02:40:03;;;;;;;4.40;3.63;;;14.00;99.90;;;;;;5093847;28;20024;-73
2022/08/25 02:42:29;;;;;;;4.90;3.63;;;14.00;99.90;;;;;;5093964;28;20403;-73
2022/08/25 02:44:55;;;;;;;4.60;3.63;;;14.00;99.90;;;;;;5076317;28;20032;-73
2022/08/25 02:47:21;;;;;;;6.03;3.35;;;14.00;99.90;;;;;;5093673;28;20062;-73
2022/08/25 02:49:48;;;;;;;5.28;3.35;;;14.00;99.90;;;;;;5093893;28;20120;-73
2022/08/25 02:52:14;;;;;;;4.10;3.08;;;14.10;99.90;;;;;;5092233;28;20024;-72
2022/08/25 02:54:40;;;;;;;4.85;3.13;;;14.10;99.90;;;;;;5093882;28;20073;-73
2022/08/25 02:57:06;;;;;;;3.95;3.47;;;14.00;99.90;;;;;;5093872;28;20028;-73
2022/08/25 02:59:32;;;;;;;5.38;3.55;;;14.00;99.90;;;;;;5094174;28;20111;-72
2022/08/25 03:01:57;;;;;;;6.45;3.20;;;14.00;99.90;;;;;;5075403;28;20032;-72
2022/08/25 03:04:23;;;;;;;4.20;3.47;;;14.00;99.90;;;;;;5093511;28;20162;-73
2022/08/25 03:06:49;;;;;;;4.20;3.58;;;14.00;99.90;;;;;;5075276;28;20031;-73
2022/08/25 03:09:15;;;;;;;4.40;3.42;;;14.00;99.90;;;;;;5094046;28;20063;-73
2022/08/25 03:11:41;;;;;;;4.10;3.10;;;14.00;99.90;;;;;;5093370;28;20099;-72
2022/08/25 03:14:08;;;;;;;6.03;3.28;;;14.00;99.90;;;;;;5093396;28;20565;-73
2022/08/25 03:16:34;;;;;;;4.15;3.45;;;14.00;99.90;;;;;;5093450;28;20017;-73
2022/08/25 03:19:00;;;;;;;5.53;3.78;;;14.00;99.90;;;;;;5092126;28;20028;-73
2022/08/25 03:21:27;;;;;;;6.28;4.15;;;13.90;99.90;;;;;;5093336;28;20020;-72
2022/08/25 03:23:54;;;;;;;4.18;3.47;;;13.90;99.90;;;;;;5093632;28;20024;-73
2022/08/25 03:29:05;;;;;;;4.43;3.53;;;13.80;99.90;;;;;;5093802;28;20026;-72
2022/08/25 03:31:32;;;;;;;5.30;3.63;;;13.80;99.90;;;;;;5093330;28;20360;-73
2022/08/25 03:33:59;;;;;;;4.55;3.28;;;13.70;99.90;;;;;;5093312;28;20396;-73
2022/08/25 03:36:26;;;;;;;5.25;3.63;;;13.70;99.90;;;;;;5093186;28;20024;-73
2022/08/25 03:38:52;;;;;;;3.80;3.17;;;13.70;99.90;;;;;;5093381;28;20020;-71
2022/08/25 03:41:19;;;;;;;7.28;3.47;;;13.60;99.90;;;;;;5093098;28;20392;-71
2022/08/25 03:43:45;;;;;;;4.22;3.30;;;13.60;99.90;;;;;;5093147;28;20472;-72
2022/08/25 03:46:20;;;;;;;5.03;3.50;;;13.60;99.90;;;;;;5095680;28;20024;-72
2022/08/25 03:48:46;;;;;;;4.75;3.50;;;13.50;99.90;;;;;;5097616;28;20056;-72
2022/08/25 03:51:12;;;;;;;5.57;4.13;;;13.40;99.90;;;;;;5097209;28;20035;-72
2022/08/25 03:53:38;;;;;;;5.63;4.28;;;13.40;99.90;;;;;;5096803;28;20067;-73
2022/08/25 03:56:04;;;;;;;5.57;3.85;;;13.40;99.90;;;;;;5096915;28;20047;-73
2022/08/25 03:58:29;;;;;;;4.70;4.10;;;13.40;99.90;;;;;;5096861;28;20102;-72
2022/08/25 04:00:59;;;;;;;7.30;3.85;;;13.40;99.90;;;;;;5096995;28;20024;-72
2022/08/25 04:03:24;;;;;;;5.18;3.97;;;13.50;99.90;;;;;;5095633;28;20451;-72
2022/08/25 04:05:50;;;;;;;4.20;3.65;;;13.50;99.90;;;;;;5096726;28;20056;-72
2022/08/25 04:08:17;;;;;;;5.43;4.15;;;13.50;99.90;;;;;;5096560;28;20038;-73
2022/08/25 04:10:43;;;;;;;5.20;3.60;;;13.50;99.90;;;;;;5078744;28;20035;-72
2022/08/25 04:13:10;;;;;;;5.10;3.78;;;13.50;99.90;;;;;;5096360;28;20032;-71
2022/08/25 04:15:40;;;;;;;5.57;4.20;;;13.40;99.90;;;;;;5096833;28;20430;-72
2022/08/25 04:18:06;;;;;;;6.38;4.22;;;13.30;99.90;;;;;;5095135;28;20490;-72
2022/08/25 04:20:31;;;;;;;6.65;3.65;;;13.30;99.90;;;;;;5096767;28;20106;-71
2022/08/25 04:23:00;;;;;;;5.95;3.80;;;13.20;99.90;;;;;;5095155;28;20108;-71
2022/08/25 04:25:26;;;;;;;4.07;3.55;;;13.10;99.90;;;;;;5096337;28;20028;-71
2022/08/25 04:27:53;;;;;;;5.15;3.95;;;13.10;99.90;;;;;;5096553;28;20052;-72
2022/08/25 04:30:20;;;;;;;5.75;3.53;;;13.10;99.90;;;;;;5094954;28;20115;-71
2022/08/25 04:32:47;;;;;;;4.25;3.63;;;13.00;99.90;;;;;;5094707;28;20119;-71
2022/08/25 04:35:13;;;;;;;6.85;5.32;;;13.00;99.90;;;;;;5097226;28;20430;-71
2022/08/25 04:37:39;;;;;;;5.65;4.78;;;13.00;99.90;;;;;;5096608;28;20059;-71
2022/08/25 04:40:05;;;;;;;6.85;5.13;;;13.00;99.90;;;;;;5096334;28;20028;-71
2022/08/25 04:42:31;;;;;;;7.32;5.13;;;13.00;99.90;;;;;;5096193;28;20036;-71
2022/08/25 04:44:58;;;;;;;6.53;5.10;;;13.10;99.90;;;;;;5096269;28;20038;-72
2022/08/25 04:47:24;;;;;;;6.13;4.95;;;13.10;99.90;;;;;;5095944;28;20032;-71
2022/08/25 04:49:50;;;;;;;5.78;5.18;;;13.10;99.90;;;;;;5095903;28;20024;-71
2022/08/25 04:52:16;;;;;;;7.72;5.35;;;13.00;99.90;;;;;;5094483;28;20477;-72
2022/08/25 04:54:42;;;;;;;7.00;4.95;;;13.00;99.90;;;;;;5094833;28;20064;-71
2022/08/25 04:57:08;;;;;;;5.53;4.40;;;13.00;99.90;;;;;;5095786;28;20032;-71
2022/08/25 04:59:34;;;;;;;6.40;5.05;;;13.00;99.90;;;;;;5096258;28;20485;-71
2022/08/25 05:02:04;;;;;;;5.78;4.70;;;13.00;99.90;;;;;;5094328;28;20058;-71
2022/08/25 05:04:31;;;;;;;4.43;3.95;;;13.00;99.90;;;;;;5095541;28;20020;-71
2022/08/25 05:06:57;;;;;;;5.07;3.95;;;13.00;99.90;;;;;;5095874;28;20032;-71
2022/08/25 05:09:24;;;;;;;5.90;3.88;;;13.00;99.90;;;;;;5094220;28;20019;-72
2022/08/25 05:11:50;;;;;;;8.07;4.25;;;13.00;99.90;;;;;;5095301;28;20455;-71
2022/08/25 05:14:20;;;;;;;5.70;4.50;;;13.00;99.90;;;;;;5095879;28;20119;-71
2022/08/25 05:16:46;;;;;;;6.57;3.97;;;13.10;99.90;;;;;;5095565;28;20085;-71
2022/08/25 05:19:12;;;;;;;4.70;3.70;;;13.10;99.90;;;;;;5093982;28;20476;-70
2022/08/25 05:21:37;;;;;;;8.13;4.25;;;13.10;99.90;;;;;;5093852;28;20024;-71
2022/08/25 05:24:03;;;;;;;5.18;3.90;;;13.10;99.90;;;;;;5093903;28;20032;-71
2022/08/25 05:26:31;;;;;;;6.20;3.75;;;13.10;99.90;;;;;;5095118;28;20034;-71
2022/08/25 05:28:59;;;;;;;4.95;4.03;;;13.10;99.90;;;;;;5095114;28;20024;-71
2022/08/25 05:31:26;;;;;;;5.60;3.85;;;13.20;99.90;;;;;;5094947;28;20023;-71
2022/08/25 05:33:53;;;;;;;5.75;4.35;;;13.20;99.90;;;;;;5095207;28;20025;-71
2022/08/25 05:36:20;;;;;;;4.90;4.07;;;13.20;99.90;;;;;;5093692;28;20031;-70
2022/08/25 05:38:46;;;;;;;5.00;4.18;;;13.20;99.90;;;;;;5093651;28;20021;-70
2022/08/25 05:41:17;;;;;;;6.18;5.07;;;13.20;99.90;;;;;;5095167;28;20032;-70
2022/08/25 05:43:45;;;;;;;8.90;5.20;;;13.20;99.90;;;;;;5094875;28;20020;-70
2022/08/25 05:46:12;;;;;;;9.65;5.60;;;13.30;99.90;;;;;;5094294;28;20024;-70
2022/08/25 05:48:38;;;;;;;7.35;4.93;;;13.30;99.90;;;;;;5094702;28;20438;-71
2022/08/25 05:51:06;;;;;;;7.80;5.18;;;13.40;99.90;;;;;;5094898;28;20112;-71
2022/08/25 05:53:32;;;;;;;8.48;5.00;;;13.40;99.90;;;;;;5094570;28;20091;-71
2022/08/25 05:56:02;;;;;;;9.65;5.10;;;13.50;99.90;;;;;;5095118;28;20059;-71
2022/08/25 05:58:29;;;;;;;9.05;5.43;;;13.50;99.90;;;;;;5095081;28;20070;-71
2022/08/25 06:00:56;;;;;;;6.70;5.43;;;13.60;99.90;;;;;;5093122;28;20028;-71
2022/08/25 06:03:22;;;;;;;6.55;4.95;;;13.60;99.90;;;;;;5094442;28;20396;-71
2022/08/25 06:05:48;;;;;;;7.85;5.60;;;13.70;99.90;;;;;;5094385;28;20021;-70
2022/08/25 06:08:14;;;;;;;7.03;5.65;;;13.70;99.90;;;;;;5092512;28;20093;-71
2022/08/25 06:10:41;;;;;;;7.07;5.32;;;13.80;99.90;;;;;;5094315;28;20052;-70
2022/08/25 06:13:07;;;;;;;8.88;6.22;;;13.90;99.90;;;;;;5094104;28;20088;-71
2022/08/25 06:15:33;;;;;;;7.45;6.40;;;14.00;99.90;;;;;;5094239;28;20024;-71
2022/08/25 06:18:00;;;;;;;6.07;5.47;;;14.00;99.90;;;;;;5094773;28;20027;-71
2022/08/25 06:20:27;;;;;;;7.55;6.13;;;14.10;99.90;;;;;;5094438;28;20020;-71
2022/08/25 06:22:53;;;;;;;11.60;6.97;;;14.10;99.90;;;;;;5094040;28;20028;-71
2022/08/25 06:25:22;;;;;;;10.88;8.68;;;14.30;99.90;;;;;;5094357;28;20446;-71
2022/08/25 06:27:48;;;;;;;11.02;8.27;;;14.40;99.90;;;;;;5093991;28;20077;-71
2022/08/25 06:30:18;;;;;;;9.95;7.90;;;14.40;99.90;;;;;;5094019;28;20028;-71
2022/08/25 06:32:44;;;;;;;14.07;9.95;;;14.50;99.90;;;;;;5093740;28;20028;-70
2022/08/25 06:35:15;;;;;;;18.35;11.88;;;14.60;99.90;;;;;;5092531;28;20022;-70
2022/08/25 06:37:41;;;;;;;;;;;14.60;99.90;;;;;;5094485;28;20557;-71
2022/08/25 06:40:09;;;;;;;10.43;8.40;;;14.70;99.90;;;;;;5092510;28;20299;-71
2022/08/25 06:42:34;;;;;;;10.35;8.00;;;14.70;99.90;;;;;;5093940;28;20024;-72
2022/08/25 06:45:01;;;;;;;10.00;8.32;;;14.80;99.90;;;;;;5093713;28;20028;-72
2022/08/25 06:47:26;;;;;;;11.93;8.38;;;14.90;99.90;;;;;;5093775;28;20074;-72
2022/08/25 06:49:52;;;;;;;13.30;8.43;;;15.00;99.90;;;;;;5092764;28;20052;-72
2022/08/25 06:52:18;;;;;;;14.13;11.15;;;15.10;99.90;;;;;;5093515;28;20520;-70
2022/08/25 06:54:44;;;;;;;18.95;11.15;;;15.20;99.90;;;;;;5093619;28;20024;-71
2022/08/25 06:57:10;;;;;;;17.50;12.95;;;15.30;99.90;;;;;;5094367;28;20020;-70
2022/08/25 06:59:36;;;;;;;13.30;11.38;;;15.40;99.90;;;;;;5092566;28;20111;-70
2022/08/25 07:02:04;;;;;;;14.90;11.82;;;15.50;99.90;;;;;;5074714;28;20451;-71
2022/08/25 07:04:30;;;;;;;12.32;10.18;;;15.60;99.90;;;;;;5073343;28;20442;-72
2022/08/25 07:06:55;;;;;;;11.65;9.80;;;15.70;99.90;;;;;;5077097;28;20020;-72
2022/08/25 07:09:21;;;;;;;11.48;8.98;;;15.80;99.90;;;;;;5093507;28;20069;-72
2022/08/25 07:11:47;;;;;;;11.18;9.13;;;15.80;99.90;;;;;;5093213;28;20025;-72
2022/08/25 07:14:15;;;;;;;11.93;9.77;;;15.90;99.90;;;;;;5093520;28;20085;-72
2022/08/25 07:16:42;;;;;;;10.18;8.93;;;16.00;99.90;;;;;;5089865;28;20036;-72
2022/08/25 07:19:08;;;;;;;12.75;10.48;;;16.10;99.90;;;;;;5084068;28;20032;-72
2022/08/25 07:21:36;;;;;;;10.13;9.05;;;16.20;99.90;;;;;;5084685;28;20039;-72
2022/08/25 07:24:08;;;;;;;10.00;8.90;;;16.30;99.90;;;;;;5079560;28;20027;-72
2022/08/25 07:26:34;;;;;;;;;;;16.40;99.90;;;;;;5080227;28;20052;-72
2022/08/25 07:29:01;;;;;;;16.52;10.05;;;16.40;99.90;;;;;;5079451;28;19908;-73
2022/08/25 07:31:27;;;;;;;11.20;9.50;;;16.60;99.90;;;;;;5089092;28;20039;-72
2022/08/25 07:36:37;;;;;;;10.43;9.32;;;16.80;99.90;;;;;;5076914;28;20048;-72
2022/08/25 07:39:06;;;;;;;10.40;8.60;;;16.90;99.90;;;;;;5077906;28;20028;-73
2022/08/25 07:41:36;;;;;;;9.73;7.85;;;17.10;99.90;;;;;;5080508;28;20119;-73
2022/08/25 07:44:02;;;;;;;14.75;8.68;;;17.30;99.90;;;;;;5091539;28;20542;-73
2022/08/25 07:46:28;;;;;;;20.67;12.57;;;17.40;99.90;;;;;;5098818;28;20063;-72
2022/08/25 07:48:54;;;;;;;10.32;7.85;;;17.60;99.90;;;;;;5094060;28;20032;-73
2022/08/25 07:51:20;;;;;;;8.70;7.28;;;17.70;99.90;;;;;;5077133;28;20036;-73
2022/08/25 07:53:45;;;;;;;11.13;8.35;;;17.80;99.90;;;;;;5077341;28;20071;-73
2022/08/25 07:56:13;;;;;;;10.85;8.73;;;17.90;99.90;;;;;;5075421;28;20539;-73
2022/08/25 07:58:40;;;;;;;11.75;9.18;;;18.00;99.90;;;;;;5074449;28;20073;-73
2022/08/25 08:01:06;;;;;;;12.70;9.88;;;18.10;99.90;;;;;;5074264;28;20036;-73
2022/08/25 08:03:35;;;;;;;11.50;9.80;;;18.30;99.90;;;;;;5074264;28;20025;-72
2022/08/25 08:06:06;;;;;;;10.77;9.32;;;18.40;99.90;;;;;;5074225;28;20024;-72
2022/08/25 08:08:32;;;;;;;13.23;9.45;;;18.60;99.90;;;;;;5074110;28;20039;-73
2022/08/25 08:10:58;;;;;;;10.38;8.73;;;18.80;99.90;;;;;;5091572;28;20040;-73
2022/08/25 08:13:25;;;;;;;12.55;10.50;;;19.00;99.90;;;;;;5096178;28;20035;-72
2022/08/25 08:15:52;;;;;;;11.52;9.98;;;19.10;99.90;;;;;;5096480;28;20023;-73
2022/08/25 08:18:17;;;;;;;17.27;11.73;;;19.30;99.90;;;;;;5095214;28;20032;-73
2022/08/25 08:20:46;;;;;;;14.32;9.32;;;19.40;99.90;;;;;;5096396;28;20028;-73
2022/08/25 08:23:12;;;;;;;23.15;9.55;;;19.50;99.90;;;;;;5095023;28;20032;-73
2022/08/25 08:25:37;;;;;;;33.53;9.05;;;19.70;99.90;;;;;;5096270;28;20097;-73
2022/08/25 08:28:03;;;;;;;12.05;7.07;;;19.90;99.90;;;;;;5096251;28;20406;-72
2022/08/25 08:30:29;;;;;;;9.10;6.70;;;20.10;99.90;;;;;;5095836;28;20081;-73
2022/08/25 08:32:55;;;;;;;6.72;5.88;;;20.20;99.90;;;;;;5095936;28;20502;-73
2022/08/25 08:35:20;;;;;;;7.10;5.90;;;20.30;99.90;;;;;;5096194;28;20028;-73
2022/08/25 08:37:46;;;;;;;7.00;5.97;;;20.40;99.90;;;;;;5094891;28;20201;-73
2022/08/25 08:40:16;;;;;;;7.07;5.57;;;20.50;99.90;;;;;;5094803;28;20028;-73
2022/08/25 08:43:05;;;;;;;6.28;5.60;;;20.70;99.90;;;;;;5096865;28;20035;-73
2022/08/25 08:45:51;;;;;;;7.43;5.63;;;20.80;99.90;;;;;;5096026;28;20052;-72
2022/08/25 08:48:35;;;;;;;5.47;4.78;;;20.90;99.90;;;;;;5096194;28;20036;-73
2022/08/25 08:51:19;;;;;;;6.13;4.85;;;21.00;99.90;;;;;;5096112;28;20024;-73
2022/08/25 08:53:51;;;;;;;6.15;4.57;;;21.10;99.90;;;;;;5094529;28;20074;-73
2022/08/25 08:56:36;;;;;;;6.78;4.70;;;21.30;99.90;;;;;;5095794;28;20054;-73
2022/08/25 08:59:08;;;;;;;6.57;4.95;;;21.40;99.90;;;;;;5095730;28;20025;-73
2022/08/25 09:01:44;;;;;;;5.35;4.40;;;21.50;99.90;;;;;;5096040;28;20038;-73
2022/08/25 09:04:28;;;;;;;7.95;4.45;;;21.60;99.90;;;;;;5094335;28;20067;-73
2022/08/25 09:06:56;;;;;;;4.40;3.85;;;21.70;99.90;;;;;;5095702;28;20034;-73
2022/08/25 09:09:31;;;;;;;7.40;4.80;;;21.90;99.90;;;;;;5095981;28;20038;-72
2022/08/25 09:12:03;;;;;;;4.60;4.05;;;21.90;99.90;;;;;;5095661;28;20024;-73
2022/08/25 09:14:45;;;;;;;8.10;4.40;;;22.00;99.60;;;;;;5095354;28;20030;-72
2022/08/25 09:17:56;;;;;;;7.80;4.53;;;22.10;99.90;;;;;;5095359;28;20103;-73
2022/08/25 09:20:39;;;;;;;5.95;4.10;;;22.20;99.40;;;;;;5092939;28;20043;-73
2022/08/25 09:23:23;;;;;;;6.60;4.22;;;22.40;99.50;;;;;;5095240;28;20027;-73
2022/08/25 09:25:55;;;;;;;4.20;3.78;;;22.50;99.10;;;;;;5093887;28;20503;-73
2022/08/25 09:28:49;;;;;;;5.05;3.67;;;22.60;98.20;;;;;;5095356;28;20032;-73
2022/08/25 09:31:21;;;;;;;4.70;3.70;;;22.70;97.60;;;;;;5091915;28;20075;-73
2022/08/25 09:33:46;;;;;;;5.07;3.42;;;22.80;96.60;;;;;;5094946;28;20024;-73
2022/08/25 09:36:13;;;;;;;5.88;3.33;;;22.90;95.50;;;;;;5094815;28;20365;-72
2022/08/25 09:38:39;;;;;;;4.32;3.35;;;23.00;96.70;;;;;;5094898;28;20027;-73
2022/08/25 09:41:06;;;;;;;4.05;3.33;;;23.00;95.90;;;;;;5094825;28;20028;-73
2022/08/25 09:43:35;;;;;;;6.15;3.55;;;23.20;96.70;;;;;;5093897;28;20032;-73
2022/08/25 09:46:07;;;;;;;4.18;3.45;;;23.30;96.20;;;;;;5095204;28;20023;-74
2022/08/25 09:48:52;;;;;;;4.07;3.40;;;23.50;95.00;;;;;;5095265;28;20369;-73
2022/08/25 09:51:38;;;;;;;6.05;3.20;;;23.60;95.40;;;;;;5094620;28;20388;-74
2022/08/25 09:54:26;;;;;;;4.25;3.45;;;23.80;95.50;;;;;;5094883;28;20472;-74
2022/08/25 09:57:00;;;;;;;5.63;3.80;;;23.90;95.20;;;;;;5095080;28;20028;-73
2022/08/25 09:59:33;;;;;;;4.55;3.40;;;24.00;94.90;;;;;;5093884;28;20476;-74
2022/08/25 10:02:00;;;;;;;;;;;24.20;95.00;;;;;;5075449;28;20322;-75
2022/08/25 10:04:26;;;;;;;;;;;24.30;94.40;;;;;;5083850;28;19987;-74
2022/08/25 10:06:51;;;;;;;;;;;24.40;94.20;;;;;;5094760;28;19978;-74
2022/08/25 10:09:36;;;;;;;;;;;24.60;94.30;;;;;;5094787;28;19926;-74
2022/08/25 10:12:13;;;;;;;;;;;24.60;94.80;;;;;;5086408;28;20365;-74
2022/08/25 10:14:39;;;;;;;;;;;24.80;93.60;;;;;;5076265;28;20011;-75
2022/08/25 10:17:11;;;;;;;;;;;24.90;93.00;;;;;;5075128;28;19960;-75
2022/08/25 10:19:37;;;;;;;;;;;25.00;93.60;;;;;;5075191;28;20349;-75
2022/08/25 10:22:05;;;;;;;;;;;25.10;92.90;;;;;;5107662;28;19908;-74
2022/08/25 10:24:31;;;;;;;;;;;25.10;94.30;;;;;;5077703;28;19904;-74
2022/08/25 10:27:03;;;;;;;;;;;25.20;92.30;;;;;;5074166;28;19999;-74
2022/08/25 10:29:32;;;;;;;;;;;25.20;92.10;;;;;;5074469;28;20359;-71
2022/08/25 10:32:03;;;;;;;;;;;25.30;92.00;;;;;;5087287;28;19912;-74
2022/08/25 10:34:31;;;;;;;;;;;25.40;92.00;;;;;;5092967;28;19912;-74
2022/08/25 10:37:05;;;;;;;;;;;25.50;92.40;;;;;;5094925;28;19932;-74
2022/08/25 10:39:42;;;;;;;;;;;25.70;92.50;;;;;;5094322;28;19904;-74
2022/08/25 10:42:07;;;;;;;;;;;25.80;93.60;;;;;;5094450;28;20213;-74
2022/08/25 10:47:41;;;;;;;;;;;26.00;92.00;;;;;;5094412;28;19970;-74
2022/08/25 10:50:13;;;;;;;;;;;26.20;91.20;;;;;;5092887;28;20264;-73
2022/08/25 10:52:57;;;;;;;;;;;26.30;90.30;;;;;;5093910;28;20360;-74
2022/08/25 10:55:35;;;;;;;;;;;26.40;91.80;;;;;;5093846;28;19935;-74
2022/08/25 10:58:04;;;;;;;;;;;26.60;91.60;;;;;;5094316;28;19908;-73
2022/08/25 11:01:02;;;;;;;;;;;26.70;90.50;;;;;;5092576;28;20272;-74
2022/08/25 11:03:37;;;;;;;;;;;26.70;90.30;;;;;;5070654;28;20290;-74
2022/08/25 11:06:13;;;;;;;2.90;2.58;;;26.80;91.80;;;;;;5093795;28;19904;-74
2022/08/25 11:08:47;;;;;;;5.20;3.00;;;26.70;89.10;;;;;;5093409;28;20060;-74
2022/08/25 11:11:24;;;;;;;3.60;2.60;;;26.70;87.50;;;;;;5093318;28;20028;-73
2022/08/25 11:13:59;;;;;;;4.25;2.50;;;26.80;88.30;;;;;;5091964;28;19929;-74
2022/08/25 11:16:38;;;;;;;3.15;2.63;;;26.80;88.20;;;;;;5093415;28;20512;-74
2022/08/25 11:19:09;;;;;;;4.10;2.47;;;26.90;89.60;;;;;;5091712;28;20016;-75
2022/08/25 11:21:49;;;;;;;2.83;2.30;;;27.00;88.10;;;;;;5088595;28;20020;-75
2022/08/25 11:24:28;;;;;;;2.75;2.38;;;27.30;87.80;;;;;;5093416;28;20047;-72
2022/08/25 11:26:56;;;;;;;3.78;2.65;;;27.50;86.70;;;;;;5092941;28;20491;-73
2022/08/25 11:29:25;;;;;;;3.33;2.50;;;27.60;85.70;;;;;;5077709;28;20024;-72
2022/08/25 11:31:53;;;;;;;2.78;2.20;;;27.70;85.20;;;;;;5093179;28;20472;-72
2022/08/25 11:34:20;;;;;;;2.60;2.05;;;27.80;83.40;;;;;;5093182;28;20036;-71
2022/08/25 11:37:18;;;;;;;3.13;2.22;;;27.90;82.70;;;;;;5093568;28;20388;-71
2022/08/25 11:40:02;;;;;;;3.65;2.10;;;28.00;84.70;;;;;;5088207;28;20048;-72
2022/08/25 11:42:51;;;;;;;4.00;2.30;;;28.10;79.80;;;;;;5080025;28;20035;-72
2022/08/25 11:45:35;;;;;;;;;;;28.20;82.60;;;;;;5091360;28;20073;-72
2022/08/25 11:48:20;;;;;;;;;;;28.30;82.10;;;;;;5092025;28;19911;-68
2022/08/25 11:51:00;;;;;;;;;;;28.40;75.20;;;;;;5071756;28;19909;-71
2022/08/25 11:53:28;;;;;;;;;;;28.30;71.30;;;;;;5073703;28;20375;-71
2022/08/25 11:55:57;;;;;;;;;;;28.40;76.30;;;;;;5071887;28;19966;-71
2022/08/25 11:58:42;;;;;;;;;;;28.40;76.30;;;;;;5072035;28;19958;-72
2022/08/25 12:01:09;;;;;;;;;;;28.50;74.60;;;;;;5091116;28;19923;-71
2022/08/25 12:03:35;;;;;;;;;;;28.40;74.90;;;;;;5081495;28;19912;-73
2022/08/25 12:06:13;;;;;;;;;;;28.50;75.70;;;;;;5094555;28;19975;-71
2022/08/25 12:08:48;;;;;;;;;;;28.60;70.30;;;;;;5088283;28;20377;-73
2022/08/25 12:11:34;;;;;;;;;;;28.60;72.50;;;;;;5084908;28;19916;-72
2022/08/25 12:14:18;;;;;;;;;;;28.60;69.90;;;;;;5085963;28;19916;-72
2022/08/25 12:16:50;;;;;;;;;;;28.50;66.20;;;;;;5076843;28;19966;-73
2022/08/25 12:19:24;;;;;;;;;;;28.40;68.80;;;;;;5077918;28;19920;-72
2022/08/25 12:21:51;;;;;;;;;;;28.40;69.60;;;;;;5076466;28;19966;-72
2022/08/25 12:24:19;;;;;;;;;;;28.40;71.10;;;;;;5084770;28;19921;-70
2022/08/25 12:26:56;;;;;;;;;;;28.40;71.90;;;;;;5076381;28;19909;-71
2022/08/25 12:29:43;;;;;;;;;;;28.50;70.50;;;;;;5076679;28;19908;-71
2022/08/25 12:32:15;;;;;;;;;;;28.40;71.00;;;;;;5076805;28;19912;-73
2022/08/25 12:34:47;;;;;;;;;;;28.30;70.20;;;;;;5085079;28;19922;-73
2022/08/25 12:37:14;;;;;;;;;;;28.30;70.90;;;;;;5096899;28;19908;-73
2022/08/25 12:39:59;;;;;;;;;;;28.30;71.60;;;;;;5080660;28;19948;-72
2022/08/25 12:42:28;;;;;;;;;;;28.30;71.60;;;;;;5087846;28;19985;-73
2022/08/25 12:45:09;;;;;;;;;;;28.40;72.40;;;;;;5096402;28;19947;-71
2022/08/25 12:47:35;;;;;;;;;;;28.40;71.70;;;;;;5089237;28;19912;-73
2022/08/25 12:50:19;;;;;;;;;;;28.40;71.70;;;;;;5105593;28;20268;-72
2022/08/25 12:52:45;;;;;;;;;;;28.30;70.60;;;;;;5115209;28;19999;-71
2022/08/25 12:55:14;;;;;;;;;;;28.30;72.90;;;;;;5096541;28;19946;-73
2022/08/25 12:57:56;;;;;;;;;;;28.20;72.40;;;;;;5096127;28;19915;-71
2022/08/25 13:00:24;;;;;;;;;;;28.30;73.60;;;;;;5094046;28;19952;-70
2022/08/25 13:03:02;;;;;;;;;;;28.20;70.90;;;;;;5095960;28;19915;-73
2022/08/25 13:05:46;;;;;;;;;;;28.20;71.50;;;;;;5087455;28;19926;-71
2022/08/25 13:08:18;;;;;;;;;;;28.10;70.20;;;;;;5075888;28;19924;-72
2022/08/25 13:11:03;;;;;;;;;;;28.00;70.10;;;;;;5076369;28;20426;-72
2022/08/25 13:13:44;;;;;;;;;;;28.10;70.50;;;;;;5074308;28;19912;-72
2022/08/25 13:16:20;;;;;;;;;;;28.30;71.20;;;;;;5079850;28;19913;-71
2022/08/25 13:18:46;;;;;;;;;;;28.40;72.10;;;;;;5075485;28;19912;-74
2022/08/25 13:21:12;;;;;;;;;;;28.50;72.60;;;;;;5076547;28;19924;-71
2022/08/25 13:23:39;;;;;;;;;;;28.50;69.20;;;;;;5083123;28;20007;-72
2022/08/25 13:26:05;;;;;;;;;;;28.40;71.00;;;;;;5093667;28;19981;-71